Petersburg, Alaska
Current Conditions -  °F | °C
As of 9:56 PM on Saturday 20 Dec 2014 (Local Time) from PAPG Reporting Station
Overcast Overcast  
Wind Chill: 36°   Ceiling: 2900
Heat Index: 39°   Visibility: 10mi
Dew Point: 36°   Wind: 5mph
Humidity: 87%   Direction: 230°SW
Pressure: 29.11"   Gusts: NA
Location:  56.81°N, 132.96°W
Report Text: PAPG 210656Z 23004KT 10SM FEW024 OVC029 04/02 A2911
Loading
Personal Weather Stations






























Interactive Weather Map New forecast layout! Learn more

10-Day Weather Forecast

Advertisements
Track Severe Weather on mobile